createdAt,value
2017-12-28T00:01:59.500Z,4.60
2017-12-28T00:04:28.380Z,4.60
2017-12-28T00:06:58.273Z,4.70
2017-12-28T00:09:27.167Z,4.60
2017-12-28T00:11:56.063Z,4.60
2017-12-28T00:17:18.803Z,4.60
2017-12-28T00:19:47.682Z,4.70
2017-12-28T00:22:17.001Z,4.70
2017-12-28T00:24:45.910Z,4.70
2017-12-28T00:27:14.785Z,4.60
2017-12-28T00:29:45.071Z,4.60
2017-12-28T00:32:13.958Z,4.60
2017-12-28T00:34:42.837Z,4.70
2017-12-28T00:37:11.729Z,4.70
2017-12-28T00:39:40.613Z,4.70
2017-12-28T00:42:09.335Z,4.60
2017-12-28T00:44:38.212Z,4.70
2017-12-28T00:47:06.928Z,4.80
2017-12-28T00:49:35.640Z,4.80
2017-12-28T00:52:04.531Z,4.80
2017-12-28T00:54:33.608Z,4.90
2017-12-28T00:57:02.503Z,4.80
2017-12-28T00:59:32.178Z,4.70
2017-12-28T01:02:01.088Z,4.70
2017-12-28T01:04:30.213Z,4.60
2017-12-28T01:06:59.079Z,4.70
2017-12-28T01:09:27.979Z,4.70
2017-12-28T01:11:56.858Z,4.60
2017-12-28T01:14:25.737Z,4.60
2017-12-28T01:16:54.648Z,4.60
2017-12-28T01:19:23.530Z,4.60
2017-12-28T01:21:52.426Z,4.50
2017-12-28T01:24:21.336Z,4.50
2017-12-28T01:26:50.212Z,4.60
2017-12-28T01:29:19.106Z,4.60
2017-12-28T01:31:47.990Z,4.60
2017-12-28T01:34:16.871Z,4.70
2017-12-28T01:36:45.760Z,4.60
2017-12-28T01:39:15.630Z,4.70
2017-12-28T01:41:44.358Z,4.70
2017-12-28T01:44:13.078Z,4.70
2017-12-28T01:46:41.975Z,4.80
2017-12-28T01:49:10.866Z,4.90
2017-12-28T01:51:39.998Z,4.90
2017-12-28T01:54:09.883Z,4.90
2017-12-28T01:56:38.803Z,5.00
2017-12-28T01:59:07.908Z,5.10
2017-12-28T02:01:36.812Z,5.20
2017-12-28T02:04:05.711Z,5.10
2017-12-28T02:06:34.609Z,5.10
2017-12-28T02:09:03.263Z,5.00
2017-12-28T02:11:32.156Z,5.10
2017-12-28T02:14:01.282Z,5.10
2017-12-28T02:16:30.145Z,5.00
2017-12-28T02:18:59.041Z,4.90
2017-12-28T02:21:27.925Z,4.80
2017-12-28T02:23:57.602Z,4.70
2017-12-28T02:26:26.479Z,4.70
2017-12-28T02:28:55.362Z,4.70
2017-12-28T02:31:24.258Z,4.70
2017-12-28T02:33:53.418Z,4.60
2017-12-28T02:36:22.325Z,4.60
2017-12-28T02:38:51.199Z,4.70
2017-12-28T02:41:20.102Z,4.60
2017-12-28T02:43:50.733Z,4.70
2017-12-28T02:46:19.632Z,4.70
2017-12-28T02:48:49.276Z,4.70
2017-12-28T02:51:18.178Z,4.70
2017-12-28T02:53:47.058Z,4.70
2017-12-28T02:56:16.018Z,4.60
2017-12-28T02:58:44.890Z,4.70
2017-12-28T03:01:14.003Z,4.70
2017-12-28T03:03:42.893Z,4.90
2017-12-28T03:06:11.783Z,5.00
2017-12-28T03:08:40.657Z,5.10
2017-12-28T03:11:09.574Z,5.20
2017-12-28T03:13:38.494Z,5.10
2017-12-28T03:16:07.386Z,5.20
2017-12-28T03:18:36.284Z,5.30
2017-12-28T03:21:05.160Z,5.10
2017-12-28T03:23:34.056Z,5.00
2017-12-28T03:26:02.750Z,5.10
2017-12-28T03:28:31.645Z,4.90
2017-12-28T03:31:00.558Z,4.80
2017-12-28T03:33:29.234Z,4.90
2017-12-28T03:35:58.125Z,4.90
2017-12-28T03:38:26.829Z,4.90
2017-12-28T03:40:55.738Z,5.00
2017-12-28T03:43:24.410Z,5.00
2017-12-28T03:45:53.293Z,5.10
2017-12-28T03:48:22.189Z,5.00
2017-12-28T03:50:51.069Z,4.90
2017-12-28T03:53:23.263Z,4.90
2017-12-28T03:55:52.934Z,4.90
2017-12-28T03:58:21.806Z,4.90
2017-12-28T04:00:50.715Z,4.90
2017-12-28T04:03:19.613Z,4.80
2017-12-28T04:05:48.507Z,4.80
2017-12-28T04:08:17.407Z,4.90
2017-12-28T04:10:46.285Z,4.90
2017-12-28T04:13:15.172Z,4.90
2017-12-28T04:15:44.048Z,4.90
2017-12-28T04:18:12.936Z,4.90
2017-12-28T04:20:41.824Z,5.10
2017-12-28T04:23:10.721Z,5.10
2017-12-28T04:25:39.615Z,5.10
2017-12-28T04:28:08.525Z,5.10
2017-12-28T04:30:37.622Z,5.00
2017-12-28T04:33:06.521Z,4.90
2017-12-28T04:35:35.422Z,5.00
2017-12-28T04:38:04.296Z,4.90
2017-12-28T04:40:33.200Z,4.90
2017-12-28T04:43:03.071Z,4.80
2017-12-28T04:45:32.180Z,4.80
2017-12-28T04:48:01.042Z,4.90
2017-12-28T04:50:29.926Z,4.90
2017-12-28T04:53:05.026Z,4.70
2017-12-28T04:55:33.922Z,4.70
2017-12-28T04:58:02.829Z,4.10
2017-12-28T05:00:31.705Z,3.70
2017-12-28T05:03:00.598Z,3.70
2017-12-28T05:05:29.513Z,3.70
2017-12-28T05:07:58.403Z,3.70
2017-12-28T05:10:27.538Z,3.80
2017-12-28T05:12:57.211Z,4.00
2017-12-28T05:24:26.059Z,4.00
2017-12-28T05:26:54.953Z,4.10
2017-12-28T05:29:23.851Z,4.20
2017-12-28T05:31:52.727Z,4.20
2017-12-28T05:34:21.651Z,4.30
2017-12-28T05:36:50.517Z,4.30
2017-12-28T05:39:19.423Z,4.20
2017-12-28T05:41:48.327Z,4.20
2017-12-28T05:44:18.008Z,4.20
2017-12-28T05:46:50.377Z,4.20
2017-12-28T05:49:20.035Z,4.10
2017-12-28T05:51:48.742Z,4.10
2017-12-28T05:54:17.502Z,4.20
2017-12-28T05:56:46.610Z,4.20
2017-12-28T05:59:15.504Z,4.20
2017-12-28T06:01:44.630Z,4.20
2017-12-28T06:04:13.557Z,4.20
2017-12-28T06:06:42.439Z,4.30
2017-12-28T06:09:11.342Z,4.30
2017-12-28T06:11:40.231Z,4.30
2017-12-28T06:14:09.116Z,4.30
2017-12-28T06:16:38.228Z,4.30
2017-12-28T06:19:07.148Z,4.20
2017-12-28T06:21:36.032Z,4.20
2017-12-28T06:24:04.948Z,4.20
2017-12-28T06:26:34.419Z,4.10
2017-12-28T06:29:03.316Z,4.10
2017-12-28T06:31:32.218Z,4.10
2017-12-28T06:34:01.115Z,4.00
2017-12-28T06:36:29.981Z,3.90
2017-12-28T06:39:00.371Z,4.00
2017-12-28T06:41:29.265Z,4.00
2017-12-28T06:43:58.180Z,4.00
2017-12-28T06:46:27.292Z,3.90
2017-12-28T06:48:56.249Z,3.90
2017-12-28T06:51:25.132Z,3.80
2017-12-28T06:53:54.046Z,3.90
2017-12-28T06:56:22.945Z,3.80
2017-12-28T06:58:51.961Z,3.90
2017-12-28T07:01:20.843Z,3.90
2017-12-28T07:03:49.827Z,3.80
2017-12-28T07:06:18.734Z,3.80
2017-12-28T07:08:47.857Z,3.80
2017-12-28T07:11:16.739Z,3.80
2017-12-28T07:13:45.859Z,3.70
2017-12-28T07:16:14.736Z,3.70
2017-12-28T07:18:43.633Z,3.70
2017-12-28T07:21:12.515Z,3.70
2017-12-28T07:23:41.420Z,3.70
2017-12-28T07:26:10.486Z,3.70
2017-12-28T07:28:39.402Z,3.70
2017-12-28T07:31:08.277Z,3.70
2017-12-28T07:33:37.175Z,3.70
2017-12-28T07:36:06.058Z,3.70
2017-12-28T07:38:34.930Z,3.70
2017-12-28T07:41:03.829Z,3.70
2017-12-28T07:43:32.702Z,3.80
2017-12-28T07:46:01.606Z,3.80
2017-12-28T07:48:30.481Z,3.80
2017-12-28T07:50:59.366Z,3.90
2017-12-28T07:53:28.285Z,4.00
2017-12-28T07:55:57.340Z,3.90
2017-12-28T07:58:26.247Z,3.90
2017-12-28T08:00:55.338Z,3.90
2017-12-28T08:03:24.225Z,4.00
2017-12-28T08:05:53.866Z,3.90
2017-12-28T08:08:22.749Z,3.90
2017-12-28T08:10:51.636Z,3.90
2017-12-28T08:13:20.522Z,3.90
2017-12-28T08:15:49.402Z,3.90
2017-12-28T08:18:18.283Z,3.90
2017-12-28T08:20:47.181Z,3.80
2017-12-28T08:23:16.073Z,3.90
2017-12-28T08:25:45.199Z,3.80
2017-12-28T08:28:14.862Z,3.80
2017-12-28T08:30:43.778Z,3.80
2017-12-28T08:33:12.665Z,3.80
2017-12-28T08:35:41.547Z,3.70
2017-12-28T08:38:10.438Z,3.60
2017-12-28T08:40:39.183Z,3.70
2017-12-28T08:43:08.233Z,3.70
2017-12-28T08:45:37.130Z,3.90
2017-12-28T08:48:06.259Z,3.90
2017-12-28T08:50:35.138Z,3.90
2017-12-28T08:53:04.026Z,4.00
2017-12-28T08:55:32.927Z,4.00
2017-12-28T08:58:01.806Z,4.10
2017-12-28T09:00:30.750Z,4.20
2017-12-28T09:02:59.625Z,4.10
2017-12-28T09:05:28.527Z,4.20
2017-12-28T09:07:57.422Z,4.10
2017-12-28T09:10:26.314Z,4.10
2017-12-28T09:12:56.176Z,4.10
2017-12-28T09:15:25.069Z,4.10
2017-12-28T09:17:53.964Z,4.20
2017-12-28T09:20:22.853Z,4.20
2017-12-28T09:22:51.751Z,4.10
2017-12-28T09:25:20.627Z,4.20
2017-12-28T09:27:49.550Z,4.30
2017-12-28T09:30:19.143Z,4.30
2017-12-28T09:32:49.674Z,4.30
2017-12-28T09:35:18.358Z,4.20
2017-12-28T09:37:47.093Z,4.30
2017-12-28T09:40:16.052Z,4.30
2017-12-28T09:42:44.959Z,4.20
2017-12-28T09:45:13.856Z,4.20
2017-12-28T09:47:42.934Z,4.20
2017-12-28T09:50:12.040Z,4.10
2017-12-28T09:52:40.980Z,4.20
2017-12-28T09:55:10.015Z,4.20
2017-12-28T09:57:39.059Z,4.20
2017-12-28T10:00:07.950Z,4.30
2017-12-28T10:02:36.861Z,4.30
2017-12-28T10:05:05.972Z,4.30
2017-12-28T10:07:39.213Z,4.30
2017-12-28T10:10:17.977Z,4.40
2017-12-28T10:12:46.844Z,4.40
2017-12-28T10:15:15.942Z,4.50
2017-12-28T10:17:44.853Z,4.50
2017-12-28T10:20:13.721Z,4.60
2017-12-28T10:22:42.614Z,4.60
2017-12-28T10:25:12.492Z,4.70
2017-12-28T10:27:41.593Z,4.60
2017-12-28T10:30:10.485Z,4.70
2017-12-28T10:32:39.773Z,4.70
2017-12-28T10:35:08.867Z,4.70
2017-12-28T10:37:37.754Z,4.80
2017-12-28T10:40:06.652Z,4.80
2017-12-28T10:42:35.598Z,4.80
2017-12-28T10:45:04.164Z,4.80
2017-12-28T10:47:33.078Z,4.80
2017-12-28T10:50:01.988Z,4.80
2017-12-28T10:52:30.958Z,4.80
2017-12-28T10:54:59.867Z,4.80
2017-12-28T10:57:28.759Z,4.90
2017-12-28T10:59:57.658Z,4.90
2017-12-28T11:02:26.547Z,4.90
2017-12-28T11:04:55.432Z,5.00
2017-12-28T11:07:24.336Z,5.00
2017-12-28T11:09:53.256Z,5.10
2017-12-28T11:12:22.351Z,5.10
2017-12-28T11:14:52.001Z,5.10
2017-12-28T11:17:20.884Z,5.10
2017-12-28T11:19:49.780Z,5.20
2017-12-28T11:22:18.921Z,5.10
2017-12-28T11:24:48.539Z,5.20
2017-12-28T11:27:17.416Z,5.10
2017-12-28T11:29:46.289Z,5.20
2017-12-28T11:32:15.994Z,5.10
2017-12-28T11:34:44.868Z,5.10
2017-12-28T11:37:13.761Z,5.10
2017-12-28T11:39:42.686Z,5.10
2017-12-28T11:42:11.638Z,5.20
2017-12-28T11:44:40.554Z,5.10
2017-12-28T11:47:09.125Z,5.30
2017-12-28T11:49:37.832Z,5.50
2017-12-28T11:52:07.329Z,5.30
2017-12-28T11:54:45.946Z,5.30
2017-12-28T11:57:14.667Z,5.20
2017-12-28T11:59:49.016Z,5.20
2017-12-28T12:02:23.656Z,5.20
2017-12-28T12:04:52.355Z,5.30
2017-12-28T12:07:21.143Z,5.30
2017-12-28T12:09:49.865Z,5.30
2017-12-28T12:12:18.888Z,5.20
2017-12-28T12:14:47.827Z,5.40
2017-12-28T12:17:16.719Z,5.30
2017-12-28T12:19:45.624Z,5.20
2017-12-28T12:22:14.535Z,5.10
2017-12-28T12:24:43.431Z,5.00
2017-12-28T12:27:12.333Z,4.90
2017-12-28T12:29:41.483Z,5.00
2017-12-28T12:32:10.363Z,5.00
2017-12-28T12:34:39.259Z,5.00
2017-12-28T12:37:08.173Z,5.10
2017-12-28T12:39:37.096Z,5.20
2017-12-28T12:42:05.996Z,5.30
2017-12-28T12:44:34.898Z,5.30
2017-12-28T12:47:03.978Z,5.20
2017-12-28T12:49:32.869Z,5.20
2017-12-28T12:52:01.804Z,5.30
2017-12-28T12:54:30.710Z,5.20
2017-12-28T12:56:59.603Z,5.30
2017-12-28T12:59:28.734Z,5.20
2017-12-28T13:01:57.663Z,5.20
2017-12-28T13:04:26.547Z,5.10
2017-12-28T13:06:55.450Z,5.10
2017-12-28T13:09:24.354Z,5.20
2017-12-28T13:11:53.260Z,5.50
2017-12-28T13:14:22.148Z,5.60
2017-12-28T13:16:51.816Z,5.60
2017-12-28T13:19:20.718Z,5.60
2017-12-28T13:21:49.619Z,5.40
2017-12-28T13:24:18.518Z,5.30
2017-12-28T13:26:47.421Z,5.20
2017-12-28T13:29:16.291Z,5.30
2017-12-28T13:31:45.196Z,5.40
2017-12-28T13:34:14.328Z,5.50
2017-12-28T13:36:43.210Z,5.50
2017-12-28T13:39:12.138Z,5.50
2017-12-28T13:41:41.048Z,5.60
2017-12-28T13:44:10.170Z,5.60
2017-12-28T13:46:39.064Z,5.60
2017-12-28T13:49:07.961Z,5.60
2017-12-28T13:51:36.891Z,5.50
2017-12-28T13:54:06.028Z,5.50
2017-12-28T13:56:34.905Z,5.40
2017-12-28T13:59:03.797Z,5.40
2017-12-28T14:01:32.714Z,5.50
2017-12-28T14:04:01.613Z,5.60
2017-12-28T14:06:30.516Z,5.60
2017-12-28T14:12:19.777Z,5.50
2017-12-28T14:14:49.447Z,5.40
2017-12-28T14:17:18.350Z,5.40
2017-12-28T14:19:47.245Z,5.40
2017-12-28T14:22:16.149Z,5.40
2017-12-28T14:24:45.078Z,5.30
2017-12-28T14:27:13.960Z,5.30
2017-12-28T14:29:42.914Z,5.40
2017-12-28T14:32:11.857Z,5.30
2017-12-28T14:34:41.149Z,5.30
2017-12-28T14:37:10.086Z,5.20
2017-12-28T14:39:38.968Z,5.20
2017-12-28T14:42:07.862Z,5.20
2017-12-28T14:44:36.809Z,5.20
2017-12-28T14:47:05.719Z,5.30
2017-12-28T14:49:37.923Z,5.20
2017-12-28T14:52:06.850Z,5.10
2017-12-28T14:54:35.756Z,5.20
2017-12-28T14:57:04.705Z,5.10
2017-12-28T14:59:33.592Z,5.10
2017-12-28T15:02:02.534Z,5.10
2017-12-28T15:04:31.662Z,5.10
2017-12-28T15:07:00.614Z,5.10
2017-12-28T15:09:29.535Z,5.00
2017-12-28T15:11:58.480Z,5.00
2017-12-28T15:14:28.158Z,5.00
2017-12-28T15:16:57.318Z,5.00
2017-12-28T15:19:26.198Z,4.80
2017-12-28T15:21:55.130Z,4.80
2017-12-28T15:24:24.009Z,4.80
2017-12-28T15:26:52.893Z,4.80
2017-12-28T15:29:22.411Z,4.80
2017-12-28T15:31:51.279Z,4.70
2017-12-28T15:34:20.163Z,4.70
2017-12-28T15:36:49.104Z,4.70
2017-12-28T15:39:17.993Z,4.70
2017-12-28T15:41:46.885Z,4.60
2017-12-28T15:44:16.052Z,4.50
2017-12-28T15:46:45.501Z,4.50
2017-12-28T15:49:14.443Z,4.60
2017-12-28T15:54:43.033Z,4.70
2017-12-28T15:57:11.964Z,4.70
2017-12-28T15:59:40.866Z,4.70
2017-12-28T16:02:10.017Z,4.70
2017-12-28T16:04:39.821Z,4.70
2017-12-28T16:07:08.710Z,4.70
2017-12-28T16:09:37.881Z,4.70
2017-12-28T16:12:06.734Z,4.70
2017-12-28T16:17:58.804Z,4.70
2017-12-28T16:20:28.468Z,4.70
2017-12-28T16:22:57.400Z,4.70
2017-12-28T16:25:26.280Z,4.70
2017-12-28T16:27:55.186Z,4.70
2017-12-28T16:30:24.073Z,4.70
2017-12-28T16:32:52.958Z,4.70
2017-12-28T16:35:21.865Z,4.70
2017-12-28T16:37:51.008Z,4.70
2017-12-28T16:55:14.313Z,4.60
2017-12-28T16:57:43.208Z,4.70
2017-12-28T17:00:12.116Z,4.80
2017-12-28T17:02:41.015Z,4.80
2017-12-28T17:05:09.928Z,4.80
2017-12-28T17:07:39.577Z,4.70
2017-12-28T17:10:08.725Z,4.60
2017-12-28T17:12:37.608Z,4.60
2017-12-28T17:21:08.617Z,4.70
2017-12-28T17:23:37.507Z,4.60
2017-12-28T17:26:07.215Z,4.70
2017-12-28T17:28:36.111Z,4.70
2017-12-28T17:31:05.005Z,4.70
2017-12-28T17:33:33.890Z,4.60
2017-12-28T17:36:02.794Z,4.60
2017-12-28T17:38:31.676Z,4.50
2017-12-28T17:41:00.558Z,4.40
2017-12-28T17:43:29.452Z,4.50
2017-12-28T17:45:58.337Z,4.50
2017-12-28T17:48:27.251Z,4.60
2017-12-28T17:50:56.163Z,4.60
2017-12-28T17:53:25.049Z,4.60
2017-12-28T17:55:54.171Z,4.60
2017-12-28T17:58:23.079Z,4.70
2017-12-28T18:00:52.492Z,4.70
2017-12-28T18:09:22.943Z,4.80
2017-12-28T18:11:51.845Z,4.80
2017-12-28T18:14:20.728Z,4.80
2017-12-28T18:16:49.616Z,4.80
2017-12-28T18:19:18.520Z,4.80
2017-12-28T18:21:47.409Z,4.90
2017-12-28T18:24:16.308Z,4.90
2017-12-28T18:26:45.192Z,4.90
2017-12-28T18:29:14.105Z,4.90
2017-12-28T18:37:47.045Z,4.90
2017-12-28T18:40:15.962Z,4.90
2017-12-28T18:42:44.899Z,4.90
2017-12-28T18:45:13.794Z,4.90
2017-12-28T18:47:42.732Z,4.90
2017-12-28T18:50:11.704Z,4.90
2017-12-28T18:52:40.589Z,4.90
2017-12-28T18:55:09.506Z,4.90
2017-12-28T18:57:38.409Z,4.90
2017-12-28T19:06:02.485Z,5.00
2017-12-28T19:08:31.349Z,5.00
2017-12-28T19:11:00.313Z,5.00
2017-12-28T19:13:29.220Z,5.00
2017-12-28T19:15:58.328Z,5.00
2017-12-28T19:18:27.306Z,4.90
2017-12-28T19:20:56.253Z,4.90
2017-12-28T19:23:25.158Z,4.90
2017-12-28T19:28:50.147Z,4.80
2017-12-28T19:31:19.269Z,4.80
2017-12-28T19:33:48.150Z,4.80
2017-12-28T19:36:17.055Z,4.80
2017-12-28T19:38:46.177Z,4.70
2017-12-28T19:41:15.085Z,4.70
2017-12-28T19:43:44.228Z,4.70
2017-12-28T19:46:13.132Z,4.70
2017-12-28T20:06:41.694Z,4.50
2017-12-28T20:09:10.608Z,4.40
2017-12-28T20:11:39.477Z,4.40
2017-12-28T20:14:09.161Z,4.30
2017-12-28T20:16:38.059Z,4.30
2017-12-28T20:19:06.939Z,4.30
2017-12-28T20:21:35.904Z,4.30
2017-12-28T20:24:04.804Z,4.20
2017-12-28T20:26:33.757Z,4.20
2017-12-28T20:47:03.526Z,4.00
2017-12-28T20:49:32.435Z,4.10
2017-12-28T20:52:01.547Z,4.10
2017-12-28T20:54:30.430Z,4.10
2017-12-28T20:57:00.861Z,4.30
2017-12-28T20:59:29.775Z,4.30
2017-12-28T21:01:58.673Z,4.50
2017-12-28T21:04:27.792Z,4.60
2017-12-28T21:06:56.707Z,4.50
2017-12-28T21:12:33.994Z,4.70
2017-12-28T21:15:03.885Z,4.70
2017-12-28T21:17:34.282Z,4.70
2017-12-28T21:20:06.630Z,4.70
2017-12-28T21:22:36.558Z,4.70
2017-12-28T21:25:05.828Z,4.80
2017-12-28T21:27:34.720Z,4.80
2017-12-28T21:30:03.773Z,4.80
2017-12-28T21:53:28.023Z,4.80
2017-12-28T21:55:56.902Z,4.70
2017-12-28T21:58:25.823Z,4.80
2017-12-28T22:00:54.721Z,4.70
2017-12-28T22:03:23.846Z,4.80
2017-12-28T22:05:52.762Z,4.80
2017-12-28T22:08:21.686Z,4.70
2017-12-28T22:10:50.634Z,4.70
2017-12-28T22:13:19.546Z,4.70
2017-12-28T22:33:47.667Z,4.30
2017-12-28T22:36:16.662Z,4.20
2017-12-28T22:38:45.547Z,4.30
2017-12-28T22:41:14.461Z,4.30
2017-12-28T22:43:43.392Z,4.20
2017-12-28T22:46:12.299Z,4.10
2017-12-28T22:48:41.212Z,4.10
2017-12-28T22:51:10.148Z,4.10
2017-12-28T22:53:39.126Z,4.20
2017-12-28T23:08:09.718Z,4.00
2017-12-28T23:10:38.581Z,3.90
2017-12-28T23:13:07.571Z,4.00
2017-12-28T23:15:36.685Z,3.90
2017-12-28T23:18:05.614Z,3.90
2017-12-28T23:20:34.508Z,3.80
2017-12-28T23:23:03.406Z,3.90
2017-12-28T23:25:33.142Z,3.80
2017-12-28T23:28:02.029Z,3.70
2017-12-28T23:30:31.072Z,3.80
2017-12-28T23:33:00.080Z,3.90
2017-12-28T23:35:29.039Z,3.80
2017-12-28T23:37:58.173Z,3.80
2017-12-28T23:40:27.049Z,3.80
2017-12-28T23:42:55.935Z,3.80
2017-12-28T23:45:24.842Z,3.90
2017-12-28T23:47:53.744Z,3.90
2017-12-28T23:50:22.622Z,3.90
2017-12-28T23:56:12.180Z,4.00
2017-12-28T23:58:41.864Z,4.00
